Time;durP1;ratioP1;P1;durP2;ratioP2;P2;SDS_P1;SDS_P2;PMS_P1;PMS_P2;Temp;Humidity;BMP_temperature;BMP_pressure;BME280_temperature;BME280_humidity;BME280_pressure;Samples;Min_cycle;Max_cycle;Signal;HPM_P1;HPM_P2
2023/10/24 00:00:32;;;;;;;4.18;3.65;;;9.60;99.90;;;;;;4988387;28;20027;-76
2023/10/24 00:02:57;;;;;;;7.05;3.10;;;9.60;99.90;;;;;;4988641;28;20033;-76
2023/10/24 00:05:23;;;;;;;5.80;3.78;;;9.50;99.90;;;;;;4987287;28;20039;-76
2023/10/24 00:07:49;;;;;;;4.25;3.88;;;9.40;99.90;;;;;;4991658;28;20023;-78
2023/10/24 00:10:16;;;;;;;3.55;3.08;;;9.40;99.90;;;;;;4995752;28;20018;-79
2023/10/24 00:12:42;;;;;;;4.35;3.58;;;9.50;99.90;;;;;;4995404;28;20099;-77
2023/10/24 00:15:08;;;;;;;7.18;3.97;;;9.50;99.90;;;;;;4995816;28;20023;-81
2023/10/24 00:17:33;;;;;;;4.75;3.40;;;9.50;99.90;;;;;;4995368;28;20027;-79
2023/10/24 00:19:59;;;;;;;6.63;4.70;;;9.40;99.90;;;;;;4995958;28;20030;-79
2023/10/24 00:22:25;;;;;;;9.50;5.25;;;9.40;99.90;;;;;;4992083;28;20026;-80
2023/10/24 00:24:51;;;;;;;7.90;3.75;;;9.40;99.90;;;;;;4996501;28;20083;-80
2023/10/24 00:27:16;;;;;;;6.03;3.30;;;9.30;99.90;;;;;;4995182;28;20034;-80
2023/10/24 00:29:42;;;;;;;9.57;4.65;;;9.30;99.90;;;;;;4996231;28;20377;-79
2023/10/24 00:32:08;;;;;;;8.95;3.95;;;9.40;99.90;;;;;;4997214;28;20034;-78
2023/10/24 00:34:49;;;;;;;5.32;4.03;;;9.40;99.90;;;;;;4965213;28;20082;-78
2023/10/24 00:37:15;;;;;;;5.97;3.80;;;9.30;99.90;;;;;;4994644;28;20019;-80
2023/10/24 00:39:41;;;;;;;8.80;4.10;;;9.30;99.90;;;;;;4995570;28;20034;-80
2023/10/24 00:42:06;;;;;;;8.50;4.28;;;9.30;99.90;;;;;;4993443;28;20098;-76
2023/10/24 00:44:32;;;;;;;7.00;4.50;;;9.30;99.90;;;;;;4997319;28;20019;-79
2023/10/24 00:46:59;;;;;;;5.18;4.57;;;9.40;99.90;;;;;;4998087;28;20031;-78
2023/10/24 00:49:25;;;;;;;8.70;5.15;;;9.30;99.90;;;;;;5005986;28;20051;-80
2023/10/24 00:51:52;;;;;;;9.40;5.35;;;9.20;99.90;;;;;;4999543;28;20018;-80
2023/10/24 00:54:18;;;;;;;10.63;5.72;;;9.20;99.90;;;;;;4999490;28;20033;-81
2023/10/24 00:56:46;;;;;;;10.82;5.75;;;9.10;99.90;;;;;;5015083;28;20026;-81
2023/10/24 00:59:13;;;;;;;13.43;6.00;;;9.10;99.90;;;;;;4999398;28;20061;-78
2023/10/24 01:01:39;;;;;;;9.13;5.88;;;9.10;99.90;;;;;;5018609;28;20025;-77
2023/10/24 01:04:05;;;;;;;7.30;6.10;;;9.10;99.90;;;;;;5017817;28;20074;-79
2023/10/24 01:06:31;;;;;;;9.45;5.93;;;9.20;99.90;;;;;;5017648;28;20034;-77
2023/10/24 01:08:56;;;;;;;8.80;5.43;;;9.20;99.90;;;;;;5002173;28;20015;-78
2023/10/24 01:11:23;;;;;;;9.30;5.65;;;9.10;99.90;;;;;;5019035;28;20104;-80
2023/10/24 01:13:50;;;;;;;7.80;5.60;;;9.20;99.90;;;;;;5002710;28;20089;-80
2023/10/24 01:16:16;;;;;;;12.88;5.55;;;9.20;99.90;;;;;;5019279;28;20022;-77
2023/10/24 01:18:42;;;;;;;10.90;6.25;;;9.20;99.90;;;;;;5051202;23;20248;-77
2023/10/24 01:21:08;;;;;;;12.75;6.93;;;9.10;99.90;;;;;;4971947;29;20062;-78
2023/10/24 01:23:35;;;;;;;8.00;6.20;;;9.20;99.90;;;;;;4974935;28;20027;-77
2023/10/24 01:26:02;;;;;;;7.97;5.25;;;9.20;99.90;;;;;;4972002;28;20235;-76
2023/10/24 01:28:29;;;;;;;12.43;5.10;;;9.20;99.90;;;;;;4975203;29;20026;-77
2023/10/24 01:30:55;;;;;;;8.93;5.55;;;9.20;99.90;;;;;;4975231;28;20034;-78
2023/10/24 01:33:22;;;;;;;6.47;4.95;;;9.30;99.90;;;;;;4973372;29;20046;-76
2023/10/24 01:35:48;;;;;;;8.57;5.40;;;9.30;99.90;;;;;;4973140;29;20104;-80
2023/10/24 01:38:14;;;;;;;19.48;4.90;;;9.40;99.90;;;;;;4972403;29;20023;-76
2023/10/24 01:40:39;;;;;;;9.15;5.15;;;9.40;99.90;;;;;;4971991;29;20026;-77
2023/10/24 01:43:05;;;;;;;6.60;5.22;;;9.50;99.90;;;;;;4971034;29;20327;-78
2023/10/24 01:45:30;;;;;;;7.95;4.97;;;9.50;99.90;;;;;;4971941;29;20284;-76
2023/10/24 01:47:57;;;;;;;5.50;4.75;;;9.50;99.90;;;;;;4972637;29;20023;-77
2023/10/24 01:50:23;;;;;;;9.93;5.93;;;9.50;99.90;;;;;;4970972;28;20023;-77
2023/10/24 01:52:49;;;;;;;8.82;5.78;;;9.50;99.90;;;;;;4971537;29;20030;-78
2023/10/24 01:55:14;;;;;;;7.70;5.60;;;9.50;99.90;;;;;;4970304;29;20065;-77
2023/10/24 01:57:40;;;;;;;11.13;5.50;;;9.50;99.90;;;;;;4971067;29;20104;-77
2023/10/24 02:00:09;;;;;;;7.65;5.28;;;9.50;99.90;;;;;;4972071;29;20027;-79
2023/10/24 02:02:35;;;;;;;8.60;4.28;;;9.50;99.90;;;;;;4972525;29;20028;-82
2023/10/24 02:05:00;;;;;;;12.13;4.90;;;9.50;99.90;;;;;;4978933;29;20036;-79
2023/10/24 02:07:27;;;;;;;7.45;4.68;;;9.50;99.90;;;;;;4978630;29;20031;-82
2023/10/24 02:09:53;;;;;;;4.30;3.92;;;9.60;99.90;;;;;;4978431;29;20021;-80
2023/10/24 02:12:19;;;;;;;7.68;3.88;;;9.60;99.90;;;;;;4978044;29;20026;-80
2023/10/24 02:14:46;;;;;;;5.43;3.47;;;9.60;99.90;;;;;;4977872;29;20011;-82
2023/10/24 02:17:11;;;;;;;8.45;3.80;;;9.60;99.90;;;;;;4976068;28;20055;-76
2023/10/24 02:19:37;;;;;;;10.75;4.07;;;9.60;99.90;;;;;;4968619;29;20030;-76
2023/10/24 02:22:03;;;;;;;9.88;3.38;;;9.60;99.90;;;;;;4968543;29;20062;-76
2023/10/24 02:24:29;;;;;;;7.95;4.10;;;9.70;99.90;;;;;;4968480;29;20023;-76
2023/10/24 02:26:54;;;;;;;7.63;4.38;;;9.80;99.90;;;;;;4969023;29;20027;-76
2023/10/24 02:29:20;;;;;;;8.63;3.75;;;9.80;99.90;;;;;;4968592;29;20027;-76
2023/10/24 02:31:46;;;;;;;9.30;3.60;;;9.80;99.90;;;;;;4969375;29;20078;-77
2023/10/24 02:34:11;;;;;;;4.53;3.50;;;9.80;99.90;;;;;;4969666;29;20154;-76
2023/10/24 02:36:37;;;;;;;12.30;4.07;;;9.80;99.90;;;;;;4969017;29;20082;-76
2023/10/24 02:39:03;;;;;;;5.13;3.67;;;9.80;99.90;;;;;;4970158;29;20039;-77
2023/10/24 02:41:28;;;;;;;6.10;4.68;;;9.90;99.90;;;;;;4968094;29;20030;-77
2023/10/24 02:43:54;;;;;;;6.85;4.10;;;9.90;99.90;;;;;;4967743;29;20031;-77
2023/10/24 02:46:19;;;;;;;6.25;3.67;;;9.90;99.90;;;;;;4969689;28;20086;-76
2023/10/24 02:48:46;;;;;;;6.03;3.72;;;9.90;99.90;;;;;;4970076;28;20027;-77
2023/10/24 02:51:12;;;;;;;4.05;3.63;;;9.90;99.90;;;;;;4968949;29;20027;-77
2023/10/24 02:53:37;;;;;;;7.47;3.50;;;9.90;99.90;;;;;;4972802;29;20085;-76
2023/10/24 02:56:03;;;;;;;7.15;3.33;;;9.90;99.90;;;;;;4974632;29;20323;-76
2023/10/24 02:58:29;;;;;;;4.15;3.30;;;9.80;99.90;;;;;;4970726;29;20041;-76
2023/10/24 03:00:54;;;;;;;7.05;3.47;;;9.90;99.90;;;;;;4971186;29;20035;-76
2023/10/24 03:03:20;;;;;;;5.90;3.75;;;9.90;99.90;;;;;;4970413;29;20046;-76
2023/10/24 03:05:46;;;;;;;4.25;3.85;;;9.90;99.90;;;;;;4969612;29;20039;-76
2023/10/24 03:08:11;;;;;;;3.70;3.13;;;9.90;99.90;;;;;;4975280;29;20018;-76
2023/10/24 03:10:41;;;;;;;6.03;3.70;;;9.90;99.90;;;;;;4980179;29;20047;-77
2023/10/24 03:13:07;;;;;;;3.78;3.28;;;9.90;99.90;;;;;;4977202;28;20019;-76
2023/10/24 03:15:34;;;;;;;4.05;3.20;;;9.90;99.90;;;;;;4980309;28;20027;-76
2023/10/24 03:18:00;;;;;;;7.07;3.83;;;9.90;99.90;;;;;;4981706;28;20030;-76
2023/10/24 03:20:26;;;;;;;8.02;4.57;;;9.80;99.90;;;;;;4979592;28;20042;-76
2023/10/24 03:22:52;;;;;;;14.45;4.43;;;9.90;99.90;;;;;;4978519;29;20033;-76
2023/10/24 03:25:18;;;;;;;25.40;5.25;;;9.90;99.90;;;;;;4979160;29;20011;-76
2023/10/24 03:27:43;;;;;;;7.05;3.88;;;9.90;99.90;;;;;;4979119;28;20023;-77
2023/10/24 03:30:09;;;;;;;10.20;3.83;;;9.90;99.90;;;;;;4976112;29;20027;-76
2023/10/24 03:32:34;;;;;;;8.45;4.07;;;9.90;99.90;;;;;;4980869;28;20019;-78
2023/10/24 03:35:00;;;;;;;5.25;3.63;;;9.90;99.90;;;;;;4980453;29;20078;-78
2023/10/24 03:37:26;;;;;;;6.43;3.30;;;10.00;99.90;;;;;;4976829;29;20091;-78
2023/10/24 03:39:51;;;;;;;8.70;3.10;;;10.00;99.90;;;;;;4980167;29;20011;-76
2023/10/24 03:42:17;;;;;;;6.53;3.63;;;10.10;99.90;;;;;;4981160;29;20031;-77
2023/10/24 03:44:42;;;;;;;5.30;3.38;;;10.10;99.90;;;;;;4980247;29;20030;-76
2023/10/24 03:47:08;;;;;;;4.93;3.90;;;10.20;99.90;;;;;;4972320;29;20102;-77
2023/10/24 03:49:34;;;;;;;4.20;3.47;;;10.30;99.90;;;;;;4970230;28;20027;-77
2023/10/24 03:52:00;;;;;;;6.07;4.57;;;10.30;99.90;;;;;;4967664;29;20027;-78
2023/10/24 03:54:26;;;;;;;8.27;3.92;;;10.20;99.90;;;;;;4969910;29;20066;-77
2023/10/24 03:56:51;;;;;;;7.65;4.65;;;10.20;99.90;;;;;;4967911;29;20023;-76
2023/10/24 03:59:17;;;;;;;6.93;3.95;;;10.20;99.90;;;;;;4967031;29;20027;-77
2023/10/24 04:01:43;;;;;;;6.88;4.70;;;10.20;99.90;;;;;;4967465;29;20023;-76
2023/10/24 04:04:09;;;;;;;7.03;3.97;;;10.20;99.90;;;;;;4968843;29;20135;-76
2023/10/24 04:06:34;;;;;;;4.05;3.65;;;10.20;99.90;;;;;;4967309;29;20035;-76
2023/10/24 04:09:04;;;;;;;6.93;4.20;;;10.30;99.90;;;;;;4968092;29;20192;-76
2023/10/24 04:11:31;;;;;;;7.22;4.43;;;10.30;99.90;;;;;;4965725;29;20031;-76
2023/10/24 04:13:58;;;;;;;9.82;4.00;;;10.40;99.90;;;;;;4965391;29;20028;-77
2023/10/24 04:16:23;;;;;;;8.43;3.40;;;10.40;99.90;;;;;;4965658;29;20136;-76
2023/10/24 04:18:49;;;;;;;7.13;4.10;;;10.50;99.90;;;;;;4963923;29;20061;-77
2023/10/24 04:21:15;;;;;;;6.38;3.47;;;10.50;99.90;;;;;;4967253;29;20062;-77
2023/10/24 04:23:41;;;;;;;6.97;3.67;;;10.40;99.90;;;;;;4967520;29;20023;-76
2023/10/24 04:26:08;;;;;;;8.75;4.50;;;10.40;99.90;;;;;;4968927;28;20046;-76
2023/10/24 04:28:34;;;;;;;10.38;4.32;;;10.30;99.90;;;;;;4968887;29;20019;-77
2023/10/24 04:31:00;;;;;;;9.98;3.92;;;10.40;99.90;;;;;;4969180;28;20026;-76
2023/10/24 04:33:25;;;;;;;8.70;3.60;;;10.50;99.90;;;;;;4967324;29;20051;-76
2023/10/24 04:35:51;;;;;;;6.22;4.28;;;10.60;99.90;;;;;;4967568;29;20023;-76
2023/10/24 04:38:18;;;;;;;5.35;3.83;;;10.60;99.90;;;;;;4966208;28;20023;-76
2023/10/24 04:40:44;;;;;;;7.05;3.75;;;10.60;99.90;;;;;;4966904;28;20054;-76
2023/10/24 04:43:09;;;;;;;11.73;4.03;;;10.60;99.90;;;;;;4966839;29;20019;-76
2023/10/24 04:45:36;;;;;;;6.93;3.60;;;10.70;99.90;;;;;;4968391;28;20035;-76
2023/10/24 04:48:06;;;;;;;6.72;4.18;;;10.60;99.90;;;;;;4964702;29;20029;-76
2023/10/24 04:50:34;;;;;;;;;;;10.70;99.90;;;;;;4966373;29;20028;-76
2023/10/24 04:53:00;;;;;;;6.20;4.20;;;10.70;99.90;;;;;;4966427;29;19903;-76
2023/10/24 04:55:25;;;;;;;9.75;3.72;;;10.60;99.90;;;;;;4967088;29;20251;-76
2023/10/24 04:57:51;;;;;;;3.60;3.30;;;10.60;99.90;;;;;;4965868;29;20082;-76
2023/10/24 05:00:17;;;;;;;5.25;3.72;;;10.60;99.90;;;;;;4966611;29;20023;-76
2023/10/24 05:02:44;;;;;;;5.80;3.28;;;10.50;99.90;;;;;;4966444;28;20362;-77
2023/10/24 05:05:10;;;;;;;4.75;3.33;;;10.60;99.90;;;;;;4965515;29;20035;-77
2023/10/24 05:07:36;;;;;;;8.95;3.75;;;10.70;99.90;;;;;;4964947;29;20050;-76
2023/10/24 05:10:03;;;;;;;5.35;3.67;;;10.70;99.90;;;;;;4965173;29;20030;-77
2023/10/24 05:12:29;;;;;;;5.72;3.78;;;10.60;99.90;;;;;;4966739;28;20090;-76
2023/10/24 05:14:55;;;;;;;7.45;4.47;;;10.60;99.90;;;;;;4966326;29;20023;-76
2023/10/24 05:17:20;;;;;;;11.65;4.47;;;10.60;99.90;;;;;;4965375;29;20035;-76
2023/10/24 05:19:46;;;;;;;8.85;4.20;;;10.60;99.90;;;;;;4965293;29;20035;-76
2023/10/24 05:22:13;;;;;;;4.38;3.33;;;10.50;99.90;;;;;;4965361;29;20319;-76
2023/10/24 05:24:39;;;;;;;9.63;4.03;;;10.50;99.90;;;;;;4965703;29;20031;-77
2023/10/24 05:27:05;;;;;;;5.70;3.60;;;10.60;99.90;;;;;;4966344;28;20350;-76
2023/10/24 05:29:34;;;;;;;7.28;3.03;;;10.60;99.90;;;;;;4965071;29;20029;-77
2023/10/24 05:32:00;;;;;;;5.22;2.42;;;10.60;99.90;;;;;;4966643;28;20034;-77
2023/10/24 05:34:27;;;;;;;6.70;2.83;;;10.60;99.90;;;;;;4964472;29;20094;-77
2023/10/24 05:36:53;;;;;;;9.32;2.92;;;10.70;99.90;;;;;;4965450;28;20058;-76
2023/10/24 05:39:19;;;;;;;5.15;2.67;;;10.70;99.90;;;;;;4964830;29;20099;-76
2023/10/24 05:41:48;;;;;;;3.38;2.83;;;10.80;99.90;;;;;;4965171;29;20027;-76
2023/10/24 05:44:14;;;;;;;4.68;2.95;;;10.80;99.90;;;;;;4965773;28;20082;-76
2023/10/24 05:46:40;;;;;;;8.27;3.95;;;10.80;99.90;;;;;;4966093;28;20330;-76
2023/10/24 05:49:06;;;;;;;8.75;3.58;;;10.80;99.90;;;;;;4966041;28;20023;-76
2023/10/24 05:51:32;;;;;;;4.07;3.20;;;10.80;99.90;;;;;;4964994;29;20143;-76
2023/10/24 05:53:58;;;;;;;4.15;3.00;;;10.80;99.90;;;;;;4966968;28;20023;-78
2023/10/24 05:56:24;;;;;;;4.72;3.40;;;10.80;99.90;;;;;;4965713;29;20026;-77
2023/10/24 05:58:49;;;;;;;6.18;3.53;;;10.80;99.90;;;;;;4968162;28;20035;-78
2023/10/24 06:01:15;;;;;;;6.30;3.03;;;10.80;99.90;;;;;;4966747;28;20087;-76
2023/10/24 06:03:41;;;;;;;5.45;2.83;;;10.80;99.90;;;;;;4964761;29;20035;-76
2023/10/24 06:06:07;;;;;;;4.15;2.90;;;10.90;99.90;;;;;;4966753;29;20028;-79
2023/10/24 06:08:33;;;;;;;5.85;3.47;;;10.90;99.90;;;;;;4967307;28;20023;-78
2023/10/24 06:11:01;;;;;;;7.95;3.33;;;11.00;99.90;;;;;;4967106;29;20041;-79
2023/10/24 06:13:27;;;;;;;7.68;3.45;;;11.00;99.90;;;;;;4967507;28;20026;-77
2023/10/24 06:15:53;;;;;;;5.78;3.92;;;11.00;99.90;;;;;;4966957;28;20055;-77
2023/10/24 06:18:19;;;;;;;4.22;3.40;;;11.00;99.90;;;;;;4966663;28;20058;-78
2023/10/24 06:20:46;;;;;;;8.50;3.35;;;10.90;99.90;;;;;;4965193;29;20023;-78
2023/10/24 06:23:11;;;;;;;6.72;3.58;;;10.90;99.90;;;;;;4964442;29;20023;-77
2023/10/24 06:25:41;;;;;;;25.75;5.10;;;11.00;99.90;;;;;;4965605;29;20039;-76
2023/10/24 06:28:07;;;;;;;;;;;11.10;99.90;;;;;;4967272;28;20082;-78
2023/10/24 06:30:34;;;;;;;7.75;3.65;;;11.00;99.90;;;;;;4967999;28;20091;-76
2023/10/24 06:32:59;;;;;;;7.30;4.30;;;11.00;99.90;;;;;;4967024;29;20280;-75
2023/10/24 06:35:25;;;;;;;7.20;4.30;;;11.10;99.90;;;;;;4967335;29;20309;-76
2023/10/24 06:37:51;;;;;;;7.75;5.43;;;11.10;99.90;;;;;;4966886;29;20035;-76
2023/10/24 06:40:17;;;;;;;7.05;4.60;;;11.00;99.90;;;;;;4967631;29;20023;-76
2023/10/24 06:42:44;;;;;;;7.18;5.30;;;11.00;99.90;;;;;;4968037;29;20026;-77
2023/10/24 06:45:10;;;;;;;9.52;4.53;;;11.10;99.90;;;;;;4965147;29;20039;-76
2023/10/24 06:47:36;;;;;;;8.80;4.15;;;11.10;99.90;;;;;;4964455;29;20046;-76
2023/10/24 06:50:03;;;;;;;7.25;4.35;;;11.10;99.90;;;;;;4966119;28;20307;-76
2023/10/24 06:52:28;;;;;;;6.05;3.88;;;11.10;99.90;;;;;;4964992;28;20034;-76
2023/10/24 06:54:54;;;;;;;7.13;4.05;;;11.20;99.90;;;;;;4965793;28;20020;-76
2023/10/24 06:57:20;;;;;;;7.28;4.93;;;11.10;99.90;;;;;;4965533;29;20090;-76
2023/10/24 06:59:46;;;;;;;7.40;6.38;;;11.10;99.90;;;;;;4965509;28;20075;-76
2023/10/24 07:02:12;;;;;;;8.57;5.78;;;11.10;99.90;;;;;;4965780;29;20023;-76
2023/10/24 07:04:37;;;;;;;8.80;5.30;;;11.10;99.90;;;;;;4965095;28;20027;-77
2023/10/24 07:07:05;;;;;;;7.63;4.57;;;11.10;99.90;;;;;;4968371;29;20027;-76
2023/10/24 07:09:30;;;;;;;3.53;3.15;;;11.10;99.90;;;;;;4968568;29;20042;-76
2023/10/24 07:11:56;;;;;;;7.68;3.53;;;11.10;99.90;;;;;;4967429;29;20098;-76
2023/10/24 07:14:22;;;;;;;4.90;3.80;;;11.20;99.90;;;;;;4969014;28;20019;-76
2023/10/24 07:16:49;;;;;;;5.20;3.67;;;11.30;99.90;;;;;;4969020;28;20259;-76
2023/10/24 07:19:15;;;;;;;5.03;3.72;;;11.30;99.90;;;;;;4966610;29;20378;-77
2023/10/24 07:21:41;;;;;;;4.85;3.47;;;11.30;99.90;;;;;;4968318;28;20031;-76
2023/10/24 07:24:07;;;;;;;16.50;9.82;;;11.30;99.90;;;;;;4968917;28;20311;-76
2023/10/24 07:26:34;;;;;;;13.88;8.23;;;11.30;99.90;;;;;;4967002;29;20062;-76
2023/10/24 07:28:59;;;;;;;6.03;4.75;;;11.40;99.90;;;;;;4967373;29;20030;-76
2023/10/24 07:31:26;;;;;;;9.18;4.75;;;11.40;99.90;;;;;;4968311;28;20027;-76
2023/10/24 07:33:51;;;;;;;12.55;5.55;;;11.40;99.90;;;;;;4968383;28;20023;-76
2023/10/24 07:36:17;;;;;;;33.17;18.48;;;11.40;99.90;;;;;;4967476;29;20022;-76
2023/10/24 07:38:43;;;;;;;16.52;10.57;;;11.40;99.90;;;;;;4969239;29;20027;-76
2023/10/24 07:41:09;;;;;;;12.55;8.93;;;11.40;99.90;;;;;;4967529;29;20019;-76
2023/10/24 07:43:34;;;;;;;14.38;7.78;;;11.40;99.90;;;;;;4968564;29;20067;-76
2023/10/24 07:46:00;;;;;;;20.50;8.98;;;11.40;99.90;;;;;;4967671;29;20031;-76
2023/10/24 07:48:26;;;;;;;11.20;6.70;;;11.40;99.90;;;;;;4968272;28;20031;-76
2023/10/24 07:50:56;;;;;;;14.98;6.18;;;11.40;99.90;;;;;;4966339;29;20054;-76
2023/10/24 07:53:23;;;;;;;6.38;4.68;;;11.40;99.90;;;;;;4966913;29;20023;-76
2023/10/24 07:55:50;;;;;;;8.73;3.45;;;11.50;99.90;;;;;;4967116;29;20027;-76
2023/10/24 07:58:16;;;;;;;10.55;3.75;;;11.50;99.90;;;;;;4966684;29;20066;-76
2023/10/24 08:00:43;;;;;;;11.70;4.18;;;11.60;99.90;;;;;;4966703;29;20027;-75
2023/10/24 08:03:09;;;;;;;10.05;4.50;;;11.60;99.90;;;;;;4968108;28;20213;-76
2023/10/24 08:05:35;;;;;;;6.68;3.92;;;11.60;99.90;;;;;;4966862;29;20114;-76
2023/10/24 08:08:01;;;;;;;7.68;2.95;;;11.60;99.90;;;;;;4968483;29;20268;-77
2023/10/24 08:10:26;;;;;;;6.15;2.83;;;11.60;99.90;;;;;;4968701;29;20251;-77
2023/10/24 08:12:52;;;;;;;4.00;2.97;;;11.70;99.90;;;;;;4967121;29;20024;-77
2023/10/24 08:15:18;;;;;;;6.53;3.10;;;11.70;99.90;;;;;;4965918;28;20030;-76
2023/10/24 08:17:43;;;;;;;4.65;2.92;;;11.70;99.90;;;;;;4965924;29;20362;-77
2023/10/24 08:20:09;;;;;;;7.88;2.60;;;11.70;99.90;;;;;;4967513;29;20215;-76
2023/10/24 08:22:35;;;;;;;5.70;3.58;;;11.70;99.90;;;;;;4965930;29;20435;-77
2023/10/24 08:25:01;;;;;;;6.38;4.05;;;11.70;99.90;;;;;;4966151;29;20047;-78
2023/10/24 08:27:26;;;;;;;10.75;5.10;;;11.70;99.90;;;;;;4966194;29;20051;-77
2023/10/24 08:29:52;;;;;;;6.45;3.70;;;11.70;99.90;;;;;;4966948;28;20090;-77
2023/10/24 08:32:17;;;;;;;7.72;4.22;;;11.60;99.90;;;;;;4965595;29;20030;-77
2023/10/24 08:34:43;;;;;;;9.23;4.35;;;11.70;99.90;;;;;;4965208;29;20050;-77
2023/10/24 08:37:09;;;;;;;8.15;4.57;;;11.70;99.90;;;;;;4966526;28;20094;-77
2023/10/24 08:39:35;;;;;;;9.20;3.95;;;11.70;99.90;;;;;;4966825;28;20031;-77
2023/10/24 08:42:00;;;;;;;10.88;3.92;;;11.80;99.90;;;;;;4965614;29;20030;-78
2023/10/24 08:44:29;;;;;;;9.80;4.60;;;11.80;99.90;;;;;;4965598;29;20030;-78
2023/10/24 08:46:55;;;;;;;31.52;9.65;;;11.70;99.90;;;;;;4965748;29;20027;-78
2023/10/24 08:49:20;;;;;;;45.38;12.95;;;11.70;99.90;;;;;;4965550;29;20027;-78
2023/10/24 08:51:53;;;;;;;42.35;17.85;;;11.80;99.90;;;;;;4967631;28;20035;-78
2023/10/24 08:54:18;;;;;;;29.73;13.05;;;11.80;99.90;;;;;;4968995;28;20074;-78
2023/10/24 08:56:45;;;;;;;30.35;10.88;;;11.80;99.90;;;;;;4966725;29;20019;-78
2023/10/24 08:59:15;;;;;;;23.50;11.02;;;11.80;99.90;;;;;;4965562;28;20031;-78
2023/10/24 09:01:43;;;;;;;22.35;10.88;;;11.80;99.90;;;;;;4965318;28;20124;-78
2023/10/24 09:04:09;;;;;;;9.75;6.10;;;11.80;99.90;;;;;;4961156;28;20050;-78
2023/10/24 09:06:34;;;;;;;7.63;2.40;;;11.80;99.90;;;;;;4963292;28;20047;-77
2023/10/24 09:09:00;;;;;;;7.93;2.75;;;11.80;99.90;;;;;;4964284;29;20023;-78
2023/10/24 09:11:46;;;;;;;0.90;0.90;;;11.80;99.90;;;;;;4966093;28;20032;-78
2023/10/24 09:14:12;;;;;;;1.48;1.13;;;11.80;99.90;;;;;;4964709;28;20308;-78
2023/10/24 09:16:38;;;;;;;3.08;1.30;;;11.80;99.90;;;;;;4961913;29;20074;-78
2023/10/24 09:19:12;;;;;;;0.65;0.63;;;11.90;99.90;;;;;;4958497;29;20051;-78
2023/10/24 09:21:38;;;;;;;1.38;0.90;;;11.80;99.90;;;;;;4960805;29;20388;-78
2023/10/24 09:24:12;;;;;;;3.67;0.80;;;11.80;99.90;;;;;;4965189;29;20047;-77
2023/10/24 09:26:38;;;;;;;1.65;1.08;;;11.80;99.90;;;;;;4962633;28;20035;-78
2023/10/24 09:29:07;;;;;;;1.10;0.75;;;11.80;99.90;;;;;;4957972;28;20042;-78
2023/10/24 09:31:33;;;;;;;7.70;1.70;;;11.90;99.90;;;;;;4958759;29;20027;-76
2023/10/24 09:33:59;;;;;;;1.05;1.05;;;11.90;99.90;;;;;;4959645;29;20039;-77
2023/10/24 09:36:25;;;;;;;0.80;0.80;;;12.00;99.90;;;;;;4962976;28;20024;-78
2023/10/24 09:38:52;;;;;;;2.33;1.20;;;12.10;99.90;;;;;;4962739;29;20104;-77
2023/10/24 09:41:20;;;;;;;2.58;1.60;;;12.10;99.90;;;;;;4963800;29;20046;-77
2023/10/24 09:43:48;;;;;;;4.53;2.10;;;12.10;99.90;;;;;;4969059;29;20019;-78
2023/10/24 09:46:22;;;;;;;2.63;1.73;;;12.10;99.90;;;;;;4968289;29;20061;-78
2023/10/24 09:48:50;;;;;;;3.55;1.80;;;12.20;99.90;;;;;;4967360;28;20027;-77
2023/10/24 09:51:19;;;;;;;4.75;1.95;;;12.20;99.90;;;;;;4966784;29;20019;-77
2023/10/24 09:53:45;;;;;;;;;;;12.30;99.90;;;;;;4966872;29;20023;-77
2023/10/24 09:56:13;;;;;;;3.63;1.80;;;12.30;99.90;;;;;;4966392;29;20197;-77
2023/10/24 09:58:41;;;;;;;3.08;1.88;;;12.30;99.90;;;;;;4966580;28;20094;-77
2023/10/24 10:01:09;;;;;;;6.65;2.05;;;12.40;99.90;;;;;;4957402;29;20031;-76
2023/10/24 10:03:36;;;;;;;3.22;1.92;;;12.40;99.90;;;;;;4957651;28;20074;-77
2023/10/24 10:06:09;;;;;;;6.60;1.77;;;12.60;99.90;;;;;;4957518;28;20031;-76
2023/10/24 10:08:37;;;;;;;2.70;1.70;;;12.60;99.90;;;;;;4957036;28;20450;-77
2023/10/24 10:11:04;;;;;;;2.15;1.73;;;12.60;99.90;;;;;;4958439;28;20022;-78
2023/10/24 10:13:32;;;;;;;2.42;1.60;;;12.60;99.90;;;;;;4958608;28;20107;-78
2023/10/24 10:16:23;;;;;;;2.53;1.77;;;12.60;99.90;;;;;;4956990;29;20059;-77
2023/10/24 10:19:04;;;;;;;5.53;1.90;;;12.70;99.90;;;;;;4959746;29;20114;-77
2023/10/24 10:21:58;;;;;;;6.15;2.08;;;12.60;99.90;;;;;;4960316;29;20031;-77
2023/10/24 10:24:47;;;;;;;2.05;1.80;;;12.70;99.90;;;;;;4959906;28;20047;-78
2023/10/24 10:27:38;;;;;;;2.90;1.33;;;12.70;99.90;;;;;;4958389;28;20031;-78
2023/10/24 10:30:20;;;;;;;1.65;1.40;;;12.80;99.90;;;;;;4967349;29;20260;-77
2023/10/24 10:33:09;;;;;;;1.75;1.65;;;12.80;99.90;;;;;;4964706;29;20361;-78
2023/10/24 10:35:58;;;;;;;4.32;1.65;;;12.80;99.90;;;;;;4961351;28;20468;-78
2023/10/24 10:38:40;;;;;;;1.92;1.83;;;12.80;99.90;;;;;;4963417;28;20098;-80
2023/10/24 10:41:28;;;;;;;2.13;1.10;;;12.80;99.90;;;;;;4962112;29;20031;-79
2023/10/24 10:43:59;;;;;;;2.10;1.20;;;12.80;99.90;;;;;;4947419;28;20051;-79
2023/10/24 10:46:30;;;;;;;2.60;1.38;;;12.80;99.90;;;;;;4961162;28;20035;-77
2023/10/24 10:49:00;;;;;;;2.13;1.40;;;12.80;99.90;;;;;;4960538;28;20023;-76
2023/10/24 10:51:29;;;;;;;1.50;1.40;;;12.80;99.90;;;;;;4960182;28;20100;-77
2023/10/24 10:54:20;;;;;;;1.50;1.42;;;12.90;99.90;;;;;;4959913;28;20049;-78
2023/10/24 10:56:48;;;;;;;2.22;1.15;;;13.00;99.90;;;;;;4969411;28;20019;-77
2023/10/24 10:59:46;;;;;;;1.73;0.90;;;13.00;99.90;;;;;;4959678;29;20027;-78
2023/10/24 11:02:23;;;;;;;2.67;1.20;;;12.80;99.90;;;;;;4959641;28;20023;-78
2023/10/24 11:04:49;;;;;;;2.83;1.27;;;12.90;99.90;;;;;;4957654;29;20476;-77
2023/10/24 11:07:17;;;;;;;2.88;0.95;;;12.90;99.90;;;;;;4957918;29;20035;-78
2023/10/24 11:09:44;;;;;;;1.63;1.15;;;13.00;99.90;;;;;;4959714;29;20027;-78
2023/10/24 11:12:19;;;;;;;3.72;1.10;;;13.10;99.90;;;;;;4961936;29;20050;-76
2023/10/24 11:15:07;;;;;;;0.95;0.95;;;13.30;99.90;;;;;;4962965;28;20031;-77
2023/10/24 11:17:34;;;;;;;2.33;1.25;;;13.40;99.90;;;;;;4959066;28;20079;-78
2023/10/24 11:20:01;;;;;;;1.38;1.27;;;13.30;99.90;;;;;;4959355;28;20038;-77
2023/10/24 11:22:26;;;;;;;2.20;1.20;;;13.40;99.90;;;;;;4959412;28;20408;-77
2023/10/24 11:24:52;;;;;;;1.67;1.00;;;13.40;99.90;;;;;;4958003;29;20507;-78
2023/10/24 11:27:22;;;;;;;2.03;1.55;;;13.20;99.90;;;;;;4959191;29;20436;-79
2023/10/24 11:29:51;;;;;;;1.95;1.33;;;13.20;99.90;;;;;;4958953;28;20495;-78
2023/10/24 11:32:17;;;;;;;3.40;1.80;;;13.20;99.90;;;;;;4959689;29;20039;-78
2023/10/24 11:34:44;;;;;;;3.00;1.50;;;13.10;99.90;;;;;;4962447;28;20027;-79
2023/10/24 11:37:10;;;;;;;2.95;1.35;;;13.10;99.90;;;;;;4962880;28;20111;-79
2023/10/24 11:39:36;;;;;;;3.53;1.65;;;13.00;99.90;;;;;;4961438;29;20095;-77
2023/10/24 11:42:02;;;;;;;2.08;1.17;;;13.00;99.90;;;;;;4962297;29;20264;-78
2023/10/24 11:44:28;;;;;;;2.70;1.20;;;13.10;99.90;;;;;;4959490;29;20385;-78
2023/10/24 11:46:54;;;;;;;3.92;1.30;;;13.10;99.90;;;;;;4957300;29;20031;-78
2023/10/24 11:49:19;;;;;;;2.72;1.67;;;13.10;99.90;;;;;;4958149;28;20019;-78
2023/10/24 11:51:46;;;;;;;1.35;1.27;;;13.10;99.90;;;;;;4958959;29;20420;-78
2023/10/24 11:54:11;;;;;;;1.58;1.33;;;13.20;99.90;;;;;;4958678;29;20447;-78
2023/10/24 11:56:38;;;;;;;3.50;1.60;;;13.20;99.90;;;;;;4960111;29;20015;-77
2023/10/24 11:59:04;;;;;;;3.00;1.80;;;13.20;99.90;;;;;;4958210;29;20385;-78
2023/10/24 12:01:32;;;;;;;2.60;2.03;;;13.30;99.90;;;;;;4958196;29;20078;-78
2023/10/24 12:03:59;;;;;;;1.80;1.70;;;13.40;99.90;;;;;;4959407;28;20035;-78
2023/10/24 12:06:26;;;;;;;2.03;1.52;;;13.50;99.90;;;;;;4959528;28;20063;-78
2023/10/24 12:08:53;;;;;;;2.38;1.50;;;13.60;99.90;;;;;;4958754;28;20027;-78
2023/10/24 12:11:20;;;;;;;1.95;1.35;;;13.60;99.90;;;;;;4957819;29;20031;-78
2023/10/24 12:13:46;;;;;;;3.50;1.65;;;13.60;99.90;;;;;;4958536;29;20118;-78
2023/10/24 12:16:12;;;;;;;3.03;1.60;;;13.60;99.90;;;;;;4958301;29;20055;-78
2023/10/24 12:18:38;;;;;;;2.85;1.30;;;13.50;99.90;;;;;;4960163;29;20338;-78
2023/10/24 12:21:04;;;;;;;1.48;1.38;;;13.60;99.90;;;;;;4959878;28;20110;-78
2023/10/24 12:23:30;;;;;;;2.20;1.50;;;13.60;99.90;;;;;;4958915;28;20081;-78
2023/10/24 12:25:56;;;;;;;2.25;1.30;;;13.60;99.90;;;;;;4957199;29;20415;-78
2023/10/24 12:28:22;;;;;;;3.33;1.20;;;13.70;99.90;;;;;;4959338;29;20034;-78
2023/10/24 12:30:47;;;;;;;1.58;1.33;;;13.70;99.90;;;;;;4958595;29;20416;-78
2023/10/24 12:33:13;;;;;;;1.05;1.02;;;13.70;99.90;;;;;;4957030;29;20058;-78
2023/10/24 12:35:39;;;;;;;2.33;1.40;;;13.70;99.90;;;;;;4958309;29;20027;-78
2023/10/24 12:38:05;;;;;;;2.97;1.08;;;13.80;99.90;;;;;;4958392;28;20102;-77
2023/10/24 12:40:31;;;;;;;2.00;1.10;;;13.90;99.90;;;;;;4958572;28;20035;-78
2023/10/24 12:42:57;;;;;;;1.25;1.15;;;13.90;99.90;;;;;;4958709;29;20023;-78
2023/10/24 12:45:23;;;;;;;1.80;1.10;;;13.90;99.90;;;;;;4958576;29;20039;-77
2023/10/24 12:47:49;;;;;;;1.25;1.10;;;13.90;99.90;;;;;;4958855;28;20016;-78